sensor_id;sensor_type;location;lat;lon;timestamp;P1;durP1;ratioP1;P2;durP2;ratioP2
19032;SDS011;9649;51.042;13.804;2023-10-09T00:00:25;5.80;;;2.20;;
19032;SDS011;9649;51.042;13.804;2023-10-09T00:05:46;9.48;;;2.90;;
19032;SDS011;9649;51.042;13.804;2023-10-09T00:10:50;7.38;;;3.00;;
19032;SDS011;9649;51.042;13.804;2023-10-09T00:15:55;6.18;;;2.38;;
19032;SDS011;9649;51.042;13.804;2023-10-09T00:21:03;7.80;;;2.90;;
19032;SDS011;9649;51.042;13.804;2023-10-09T00:26:15;7.03;;;3.00;;
19032;SDS011;9649;51.042;13.804;2023-10-09T00:31:18;4.23;;;2.10;;
19032;SDS011;9649;51.042;13.804;2023-10-09T00:36:31;7.38;;;2.50;;
19032;SDS011;9649;51.042;13.804;2023-10-09T00:41:35;5.60;;;2.40;;
19032;SDS011;9649;51.042;13.804;2023-10-09T00:46:38;6.32;;;2.60;;
19032;SDS011;9649;51.042;13.804;2023-10-09T00:51:45;6.32;;;3.05;;
19032;SDS011;9649;51.042;13.804;2023-10-09T00:56:59;4.90;;;2.17;;
19032;SDS011;9649;51.042;13.804;2023-10-09T01:02:08;7.07;;;2.78;;
19032;SDS011;9649;51.042;13.804;2023-10-09T01:07:11;5.30;;;2.70;;
19032;SDS011;9649;51.042;13.804;2023-10-09T01:12:18;7.75;;;2.70;;
19032;SDS011;9649;51.042;13.804;2023-10-09T01:17:22;3.67;;;2.22;;
19032;SDS011;9649;51.042;13.804;2023-10-09T01:22:37;5.75;;;3.22;;
19032;SDS011;9649;51.042;13.804;2023-10-09T01:27:43;9.10;;;3.30;;
19032;SDS011;9649;51.042;13.804;2023-10-09T01:32:45;4.43;;;2.60;;
19032;SDS011;9649;51.042;13.804;2023-10-09T01:37:49;6.65;;;3.42;;
19032;SDS011;9649;51.042;13.804;2023-10-09T01:42:54;6.18;;;2.88;;
19032;SDS011;9649;51.042;13.804;2023-10-09T01:47:57;5.03;;;3.15;;
19032;SDS011;9649;51.042;13.804;2023-10-09T01:53:09;5.78;;;3.35;;
19032;SDS011;9649;51.042;13.804;2023-10-09T01:58:19;5.32;;;3.20;;
19032;SDS011;9649;51.042;13.804;2023-10-09T02:03:26;4.80;;;2.97;;
19032;SDS011;9649;51.042;13.804;2023-10-09T02:08:31;4.75;;;2.90;;
19032;SDS011;9649;51.042;13.804;2023-10-09T02:13:38;6.18;;;3.05;;
19032;SDS011;9649;51.042;13.804;2023-10-09T02:18:43;4.53;;;2.90;;
19032;SDS011;9649;51.042;13.804;2023-10-09T02:23:55;5.70;;;2.92;;
19032;SDS011;9649;51.042;13.804;2023-10-09T02:29:00;6.78;;;2.78;;
19032;SDS011;9649;51.042;13.804;2023-10-09T02:34:06;4.50;;;2.75;;
19032;SDS011;9649;51.042;13.804;2023-10-09T02:39:10;7.40;;;2.60;;
19032;SDS011;9649;51.042;13.804;2023-10-09T02:44:26;7.70;;;3.03;;
19032;SDS011;9649;51.042;13.804;2023-10-09T02:49:32;3.83;;;2.60;;
19032;SDS011;9649;51.042;13.804;2023-10-09T02:54:36;4.07;;;2.70;;
19032;SDS011;9649;51.042;13.804;2023-10-09T02:59:44;6.32;;;3.20;;
19032;SDS011;9649;51.042;13.804;2023-10-09T03:04:47;6.35;;;2.97;;
19032;SDS011;9649;51.042;13.804;2023-10-09T03:09:50;8.32;;;3.13;;
19032;SDS011;9649;51.042;13.804;2023-10-09T03:14:54;5.22;;;3.40;;
19032;SDS011;9649;51.042;13.804;2023-10-09T03:20:03;6.90;;;3.60;;
19032;SDS011;9649;51.042;13.804;2023-10-09T03:25:13;6.88;;;4.20;;
19032;SDS011;9649;51.042;13.804;2023-10-09T03:30:19;6.73;;;3.80;;
19032;SDS011;9649;51.042;13.804;2023-10-09T03:35:25;6.97;;;3.97;;
19032;SDS011;9649;51.042;13.804;2023-10-09T03:40:28;5.73;;;4.27;;
19032;SDS011;9649;51.042;13.804;2023-10-09T03:45:34;13.27;;;5.27;;
19032;SDS011;9649;51.042;13.804;2023-10-09T03:50:39;10.23;;;5.38;;
19032;SDS011;9649;51.042;13.804;2023-10-09T03:55:44;9.63;;;5.70;;
19032;SDS011;9649;51.042;13.804;2023-10-09T04:00:49;8.80;;;6.15;;
19032;SDS011;9649;51.042;13.804;2023-10-09T04:05:53;8.85;;;5.95;;
19032;SDS011;9649;51.042;13.804;2023-10-09T04:10:58;17.13;;;6.80;;
19032;SDS011;9649;51.042;13.804;2023-10-09T04:16:06;12.77;;;6.50;;
19032;SDS011;9649;51.042;13.804;2023-10-09T04:21:27;11.95;;;7.60;;
19032;SDS011;9649;51.042;13.804;2023-10-09T04:26:39;13.98;;;7.75;;
19032;SDS011;9649;51.042;13.804;2023-10-09T04:31:47;12.38;;;7.65;;
19032;SDS011;9649;51.042;13.804;2023-10-09T04:36:53;12.50;;;7.03;;
19032;SDS011;9649;51.042;13.804;2023-10-09T04:41:58;11.15;;;7.47;;
19032;SDS011;9649;51.042;13.804;2023-10-09T04:47:17;11.95;;;7.22;;
19032;SDS011;9649;51.042;13.804;2023-10-09T04:52:20;11.15;;;6.78;;
19032;SDS011;9649;51.042;13.804;2023-10-09T04:57:53;10.15;;;6.70;;
19032;SDS011;9649;51.042;13.804;2023-10-09T05:03:11;11.43;;;7.10;;
19032;SDS011;9649;51.042;13.804;2023-10-09T05:08:26;10.25;;;6.50;;
19032;SDS011;9649;51.042;13.804;2023-10-09T05:13:34;10.40;;;6.82;;
19032;SDS011;9649;51.042;13.804;2023-10-09T05:18:46;12.48;;;6.60;;
19032;SDS011;9649;51.042;13.804;2023-10-09T05:23:58;10.73;;;6.80;;
19032;SDS011;9649;51.042;13.804;2023-10-09T05:29:17;13.50;;;7.30;;
19032;SDS011;9649;51.042;13.804;2023-10-09T05:34:37;13.53;;;8.03;;
19032;SDS011;9649;51.042;13.804;2023-10-09T05:40:01;15.77;;;8.77;;
19032;SDS011;9649;51.042;13.804;2023-10-09T05:45:24;14.53;;;9.17;;
19032;SDS011;9649;51.042;13.804;2023-10-09T05:50:47;14.63;;;9.57;;
19032;SDS011;9649;51.042;13.804;2023-10-09T05:56:12;16.73;;;9.80;;
19032;SDS011;9649;51.042;13.804;2023-10-09T06:01:32;14.97;;;10.13;;
19032;SDS011;9649;51.042;13.804;2023-10-09T06:06:54;18.93;;;10.03;;
19032;SDS011;9649;51.042;13.804;2023-10-09T06:11:58;18.17;;;9.97;;
19032;SDS011;9649;51.042;13.804;2023-10-09T06:17:19;20.67;;;10.83;;
19032;SDS011;9649;51.042;13.804;2023-10-09T06:22:26;18.97;;;10.13;;
19032;SDS011;9649;51.042;13.804;2023-10-09T06:27:47;18.87;;;10.00;;
19032;SDS011;9649;51.042;13.804;2023-10-09T06:32:59;15.23;;;10.20;;
19032;SDS011;9649;51.042;13.804;2023-10-09T06:38:22;17.20;;;11.03;;
19032;SDS011;9649;51.042;13.804;2023-10-09T06:43:35;18.30;;;10.87;;
19032;SDS011;9649;51.042;13.804;2023-10-09T06:48:49;17.30;;;10.60;;
19032;SDS011;9649;51.042;13.804;2023-10-09T06:53:59;14.87;;;10.43;;
19032;SDS011;9649;51.042;13.804;2023-10-09T06:59:07;17.97;;;10.97;;
19032;SDS011;9649;51.042;13.804;2023-10-09T07:04:17;16.02;;;10.73;;
19032;SDS011;9649;51.042;13.804;2023-10-09T07:09:46;18.83;;;11.30;;
19032;SDS011;9649;51.042;13.804;2023-10-09T07:15:03;22.00;;;12.60;;
19032;SDS011;9649;51.042;13.804;2023-10-09T07:20:20;24.00;;;11.37;;
19032;SDS011;9649;51.042;13.804;2023-10-09T07:25:40;22.20;;;12.03;;
19032;SDS011;9649;51.042;13.804;2023-10-09T07:30:45;19.27;;;12.43;;
19032;SDS011;9649;51.042;13.804;2023-10-09T07:35:48;18.58;;;11.85;;
19032;SDS011;9649;51.042;13.804;2023-10-09T07:41:00;21.13;;;12.00;;
19032;SDS011;9649;51.042;13.804;2023-10-09T07:46:25;21.03;;;11.90;;
19032;SDS011;9649;51.042;13.804;2023-10-09T07:51:35;23.88;;;13.27;;
19032;SDS011;9649;51.042;13.804;2023-10-09T07:56:40;21.17;;;13.45;;
19032;SDS011;9649;51.042;13.804;2023-10-09T08:01:47;17.85;;;12.25;;
19032;SDS011;9649;51.042;13.804;2023-10-09T08:06:55;22.33;;;12.95;;
19032;SDS011;9649;51.042;13.804;2023-10-09T08:12:21;25.00;;;12.93;;
19032;SDS011;9649;51.042;13.804;2023-10-09T08:17:59;24.73;;;13.68;;
19032;SDS011;9649;51.042;13.804;2023-10-09T08:23:11;25.88;;;13.82;;
19032;SDS011;9649;51.042;13.804;2023-10-09T08:28:24;21.30;;;14.35;;
19032;SDS011;9649;51.042;13.804;2023-10-09T08:33:43;25.45;;;15.80;;
19032;SDS011;9649;51.042;13.804;2023-10-09T08:38:49;26.25;;;14.32;;
19032;SDS011;9649;51.042;13.804;2023-10-09T08:43:55;25.20;;;16.08;;
19032;SDS011;9649;51.042;13.804;2023-10-09T08:48:59;25.85;;;16.25;;
19032;SDS011;9649;51.042;13.804;2023-10-09T08:54:07;23.35;;;15.43;;
19032;SDS011;9649;51.042;13.804;2023-10-09T08:59:15;28.45;;;17.00;;
19032;SDS011;9649;51.042;13.804;2023-10-09T09:04:36;28.80;;;16.80;;
19032;SDS011;9649;51.042;13.804;2023-10-09T09:09:41;23.05;;;14.95;;
19032;SDS011;9649;51.042;13.804;2023-10-09T09:14:59;29.88;;;16.13;;
19032;SDS011;9649;51.042;13.804;2023-10-09T09:20:18;29.40;;;16.40;;
19032;SDS011;9649;51.042;13.804;2023-10-09T09:25:24;27.23;;;16.90;;
19032;SDS011;9649;51.042;13.804;2023-10-09T09:30:42;26.42;;;15.27;;
19032;SDS011;9649;51.042;13.804;2023-10-09T09:35:55;27.45;;;14.88;;
19032;SDS011;9649;51.042;13.804;2023-10-09T09:40:59;25.83;;;15.13;;
19032;SDS011;9649;51.042;13.804;2023-10-09T09:46:05;26.65;;;14.55;;
19032;SDS011;9649;51.042;13.804;2023-10-09T09:51:12;23.77;;;13.57;;
19032;SDS011;9649;51.042;13.804;2023-10-09T09:56:16;28.60;;;14.10;;
19032;SDS011;9649;51.042;13.804;2023-10-09T10:01:25;30.15;;;13.85;;
19032;SDS011;9649;51.042;13.804;2023-10-09T10:06:33;26.40;;;12.65;;
19032;SDS011;9649;51.042;13.804;2023-10-09T10:11:43;23.73;;;12.13;;
19032;SDS011;9649;51.042;13.804;2023-10-09T10:17:04;17.23;;;9.90;;
19032;SDS011;9649;51.042;13.804;2023-10-09T10:22:24;18.25;;;9.55;;
19032;SDS011;9649;51.042;13.804;2023-10-09T10:27:29;23.08;;;10.40;;
19032;SDS011;9649;51.042;13.804;2023-10-09T10:37:57;14.85;;;8.38;;
19032;SDS011;9649;51.042;13.804;2023-10-09T10:43:14;18.08;;;9.50;;
19032;SDS011;9649;51.042;13.804;2023-10-09T10:48:35;15.00;;;7.90;;
19032;SDS011;9649;51.042;13.804;2023-10-09T10:53:49;21.27;;;9.77;;
19032;SDS011;9649;51.042;13.804;2023-10-09T10:58:54;18.55;;;10.15;;
19032;SDS011;9649;51.042;13.804;2023-10-09T11:04:13;18.88;;;9.93;;
19032;SDS011;9649;51.042;13.804;2023-10-09T11:09:26;16.83;;;9.35;;
19032;SDS011;9649;51.042;13.804;2023-10-09T11:14:53;21.27;;;11.05;;
19032;SDS011;9649;51.042;13.804;2023-10-09T11:20:10;20.23;;;10.32;;
19032;SDS011;9649;51.042;13.804;2023-10-09T11:25:33;20.15;;;10.27;;
19032;SDS011;9649;51.042;13.804;2023-10-09T11:30:37;21.73;;;10.20;;
19032;SDS011;9649;51.042;13.804;2023-10-09T11:35:52;20.27;;;9.30;;
19032;SDS011;9649;51.042;13.804;2023-10-09T11:41:01;16.60;;;9.75;;
19032;SDS011;9649;51.042;13.804;2023-10-09T11:46:20;21.00;;;10.35;;
19032;SDS011;9649;51.042;13.804;2023-10-09T11:51:43;19.15;;;9.65;;
19032;SDS011;9649;51.042;13.804;2023-10-09T11:57:06;22.83;;;11.82;;
19032;SDS011;9649;51.042;13.804;2023-10-09T12:02:09;25.40;;;12.02;;
19032;SDS011;9649;51.042;13.804;2023-10-09T12:07:15;20.42;;;11.95;;
19032;SDS011;9649;51.042;13.804;2023-10-09T12:12:21;21.63;;;12.23;;
19032;SDS011;9649;51.042;13.804;2023-10-09T12:17:27;26.45;;;13.40;;
19032;SDS011;9649;51.042;13.804;2023-10-09T12:22:31;17.27;;;10.88;;
19032;SDS011;9649;51.042;13.804;2023-10-09T12:27:34;28.15;;;12.07;;
19032;SDS011;9649;51.042;13.804;2023-10-09T12:32:37;18.35;;;10.82;;
19032;SDS011;9649;51.042;13.804;2023-10-09T12:37:42;21.73;;;10.63;;
19032;SDS011;9649;51.042;13.804;2023-10-09T12:42:45;24.33;;;11.75;;
19032;SDS011;9649;51.042;13.804;2023-10-09T12:47:49;22.73;;;11.27;;
19032;SDS011;9649;51.042;13.804;2023-10-09T12:52:53;19.83;;;10.68;;
19032;SDS011;9649;51.042;13.804;2023-10-09T12:57:59;22.60;;;12.10;;
19032;SDS011;9649;51.042;13.804;2023-10-09T13:03:05;21.58;;;11.40;;
19032;SDS011;9649;51.042;13.804;2023-10-09T13:08:20;17.10;;;9.40;;
19032;SDS011;9649;51.042;13.804;2023-10-09T13:13:24;21.75;;;10.52;;
19032;SDS011;9649;51.042;13.804;2023-10-09T13:18:38;18.60;;;10.55;;
19032;SDS011;9649;51.042;13.804;2023-10-09T13:23:44;16.83;;;10.43;;
19032;SDS011;9649;51.042;13.804;2023-10-09T13:28:49;19.00;;;10.02;;
19032;SDS011;9649;51.042;13.804;2023-10-09T13:33:54;15.80;;;9.55;;
19032;SDS011;9649;51.042;13.804;2023-10-09T13:38:58;21.98;;;11.20;;
19032;SDS011;9649;51.042;13.804;2023-10-09T13:44:20;16.38;;;9.75;;
19032;SDS011;9649;51.042;13.804;2023-10-09T13:49:23;16.52;;;9.23;;
19032;SDS011;9649;51.042;13.804;2023-10-09T13:54:32;16.52;;;10.65;;
19032;SDS011;9649;51.042;13.804;2023-10-09T13:59:42;16.70;;;10.15;;
19032;SDS011;9649;51.042;13.804;2023-10-09T14:04:50;14.27;;;9.30;;
19032;SDS011;9649;51.042;13.804;2023-10-09T14:09:55;14.20;;;9.40;;
19032;SDS011;9649;51.042;13.804;2023-10-09T14:15:08;14.43;;;8.90;;
19032;SDS011;9649;51.042;13.804;2023-10-09T14:20:18;17.40;;;9.27;;
19032;SDS011;9649;51.042;13.804;2023-10-09T14:25:34;22.23;;;12.65;;
19032;SDS011;9649;51.042;13.804;2023-10-09T14:30:38;17.85;;;11.30;;
19032;SDS011;9649;51.042;13.804;2023-10-09T14:35:45;15.82;;;10.45;;
19032;SDS011;9649;51.042;13.804;2023-10-09T14:40:51;14.27;;;8.90;;
19032;SDS011;9649;51.042;13.804;2023-10-09T14:45:58;13.10;;;9.43;;
19032;SDS011;9649;51.042;13.804;2023-10-09T14:51:02;17.80;;;10.18;;
19032;SDS011;9649;51.042;13.804;2023-10-09T14:56:07;16.52;;;10.60;;
19032;SDS011;9649;51.042;13.804;2023-10-09T15:01:11;14.60;;;9.80;;
19032;SDS011;9649;51.042;13.804;2023-10-09T15:06:16;16.50;;;10.25;;
19032;SDS011;9649;51.042;13.804;2023-10-09T15:11:22;15.77;;;9.43;;
19032;SDS011;9649;51.042;13.804;2023-10-09T15:16:26;9.52;;;7.03;;
19032;SDS011;9649;51.042;13.804;2023-10-09T15:21:31;9.18;;;5.45;;
19032;SDS011;9649;51.042;13.804;2023-10-09T15:26:37;8.82;;;5.43;;
19032;SDS011;9649;51.042;13.804;2023-10-09T15:31:41;6.57;;;4.57;;
19032;SDS011;9649;51.042;13.804;2023-10-09T15:36:44;7.57;;;4.95;;
19032;SDS011;9649;51.042;13.804;2023-10-09T15:41:49;7.97;;;4.60;;
19032;SDS011;9649;51.042;13.804;2023-10-09T15:46:52;7.50;;;4.50;;
19032;SDS011;9649;51.042;13.804;2023-10-09T15:52:01;6.68;;;4.90;;
19032;SDS011;9649;51.042;13.804;2023-10-09T15:57:05;5.90;;;4.88;;
19032;SDS011;9649;51.042;13.804;2023-10-09T16:02:14;6.13;;;4.70;;
19032;SDS011;9649;51.042;13.804;2023-10-09T16:07:18;6.18;;;4.30;;
19032;SDS011;9649;51.042;13.804;2023-10-09T16:12:22;3.83;;;3.42;;
19032;SDS011;9649;51.042;13.804;2023-10-09T16:17:26;5.53;;;3.20;;
19032;SDS011;9649;51.042;13.804;2023-10-09T16:22:29;3.72;;;3.38;;
19032;SDS011;9649;51.042;13.804;2023-10-09T16:27:34;7.10;;;4.15;;
19032;SDS011;9649;51.042;13.804;2023-10-09T16:32:43;6.18;;;4.43;;
19032;SDS011;9649;51.042;13.804;2023-10-09T16:37:46;5.55;;;4.10;;
19032;SDS011;9649;51.042;13.804;2023-10-09T16:42:52;4.82;;;4.20;;
19032;SDS011;9649;51.042;13.804;2023-10-09T16:47:55;7.43;;;4.82;;
19032;SDS011;9649;51.042;13.804;2023-10-09T16:53:00;7.38;;;6.00;;
19032;SDS011;9649;51.042;13.804;2023-10-09T16:58:06;9.00;;;5.93;;
19032;SDS011;9649;51.042;13.804;2023-10-09T17:03:09;7.38;;;5.97;;
19032;SDS011;9649;51.042;13.804;2023-10-09T17:08:12;8.60;;;6.70;;
19032;SDS011;9649;51.042;13.804;2023-10-09T17:13:16;8.73;;;7.20;;
19032;SDS011;9649;51.042;13.804;2023-10-09T17:18:22;9.00;;;6.70;;
19032;SDS011;9649;51.042;13.804;2023-10-09T17:23:26;11.02;;;8.45;;
19032;SDS011;9649;51.042;13.804;2023-10-09T17:28:30;8.50;;;7.35;;
19032;SDS011;9649;51.042;13.804;2023-10-09T17:33:33;10.45;;;8.20;;
19032;SDS011;9649;51.042;13.804;2023-10-09T17:38:36;12.00;;;9.40;;
19032;SDS011;9649;51.042;13.804;2023-10-09T17:43:40;11.27;;;8.70;;
19032;SDS011;9649;51.042;13.804;2023-10-09T17:48:43;13.18;;;9.52;;
19032;SDS011;9649;51.042;13.804;2023-10-09T17:53:46;10.18;;;8.32;;
19032;SDS011;9649;51.042;13.804;2023-10-09T17:58:52;13.85;;;9.07;;
19032;SDS011;9649;51.042;13.804;2023-10-09T18:03:54;14.73;;;10.38;;
19032;SDS011;9649;51.042;13.804;2023-10-09T18:09:00;13.50;;;9.85;;
19032;SDS011;9649;51.042;13.804;2023-10-09T18:14:18;15.82;;;11.73;;
19032;SDS011;9649;51.042;13.804;2023-10-09T18:19:21;14.63;;;10.90;;
19032;SDS011;9649;51.042;13.804;2023-10-09T18:24:24;14.45;;;10.35;;
19032;SDS011;9649;51.042;13.804;2023-10-09T18:29:28;17.42;;;11.82;;
19032;SDS011;9649;51.042;13.804;2023-10-09T18:34:31;14.52;;;10.82;;
19032;SDS011;9649;51.042;13.804;2023-10-09T18:39:34;14.95;;;10.73;;
19032;SDS011;9649;51.042;13.804;2023-10-09T18:44:42;18.13;;;12.15;;
19032;SDS011;9649;51.042;13.804;2023-10-09T18:49:46;15.45;;;11.30;;
19032;SDS011;9649;51.042;13.804;2023-10-09T18:54:51;15.30;;;10.65;;
19032;SDS011;9649;51.042;13.804;2023-10-09T18:59:55;15.15;;;11.45;;
19032;SDS011;9649;51.042;13.804;2023-10-09T19:04:58;12.95;;;10.05;;
19032;SDS011;9649;51.042;13.804;2023-10-09T19:10:02;14.68;;;11.00;;
19032;SDS011;9649;51.042;13.804;2023-10-09T19:15:11;17.25;;;11.15;;
19032;SDS011;9649;51.042;13.804;2023-10-09T19:20:14;16.65;;;11.82;;
19032;SDS011;9649;51.042;13.804;2023-10-09T19:25:18;16.58;;;11.00;;
19032;SDS011;9649;51.042;13.804;2023-10-09T19:30:29;17.98;;;12.75;;
19032;SDS011;9649;51.042;13.804;2023-10-09T19:35:32;17.25;;;11.30;;
19032;SDS011;9649;51.042;13.804;2023-10-09T19:40:35;17.83;;;11.82;;
19032;SDS011;9649;51.042;13.804;2023-10-09T19:45:39;18.23;;;12.13;;
19032;SDS011;9649;51.042;13.804;2023-10-09T19:50:42;19.15;;;12.63;;
19032;SDS011;9649;51.042;13.804;2023-10-09T19:55:46;17.30;;;12.57;;
19032;SDS011;9649;51.042;13.804;2023-10-09T20:00:50;17.30;;;13.07;;
19032;SDS011;9649;51.042;13.804;2023-10-09T20:05:54;16.67;;;13.32;;
19032;SDS011;9649;51.042;13.804;2023-10-09T20:11:02;17.95;;;12.38;;
19032;SDS011;9649;51.042;13.804;2023-10-09T20:16:09;19.58;;;13.90;;
19032;SDS011;9649;51.042;13.804;2023-10-09T20:21:12;22.27;;;15.38;;
19032;SDS011;9649;51.042;13.804;2023-10-09T20:26:15;20.25;;;14.68;;
19032;SDS011;9649;51.042;13.804;2023-10-09T20:31:19;22.10;;;15.82;;
19032;SDS011;9649;51.042;13.804;2023-10-09T20:36:23;22.45;;;14.27;;
19032;SDS011;9649;51.042;13.804;2023-10-09T20:41:30;20.38;;;14.23;;
19032;SDS011;9649;51.042;13.804;2023-10-09T20:46:34;18.33;;;13.20;;
19032;SDS011;9649;51.042;13.804;2023-10-09T20:51:37;24.58;;;14.52;;
19032;SDS011;9649;51.042;13.804;2023-10-09T20:56:57;21.08;;;13.75;;
19032;SDS011;9649;51.042;13.804;2023-10-09T21:02:02;22.48;;;12.52;;
19032;SDS011;9649;51.042;13.804;2023-10-09T21:07:07;17.35;;;12.98;;
19032;SDS011;9649;51.042;13.804;2023-10-09T21:12:12;21.25;;;11.85;;
19032;SDS011;9649;51.042;13.804;2023-10-09T21:17:17;13.55;;;9.90;;
19032;SDS011;9649;51.042;13.804;2023-10-09T21:22:21;12.55;;;8.38;;
19032;SDS011;9649;51.042;13.804;2023-10-09T21:27:24;13.70;;;8.48;;
19032;SDS011;9649;51.042;13.804;2023-10-09T21:32:28;13.60;;;9.48;;
19032;SDS011;9649;51.042;13.804;2023-10-09T21:37:31;16.27;;;10.75;;
19032;SDS011;9649;51.042;13.804;2023-10-09T21:42:34;15.50;;;10.93;;
19032;SDS011;9649;51.042;13.804;2023-10-09T21:47:38;16.58;;;10.60;;
19032;SDS011;9649;51.042;13.804;2023-10-09T21:52:42;14.13;;;10.50;;
19032;SDS011;9649;51.042;13.804;2023-10-09T21:57:47;17.55;;;12.32;;
19032;SDS011;9649;51.042;13.804;2023-10-09T22:02:52;18.23;;;13.30;;
19032;SDS011;9649;51.042;13.804;2023-10-09T22:07:57;20.08;;;13.70;;
19032;SDS011;9649;51.042;13.804;2023-10-09T22:13:01;22.33;;;16.02;;
19032;SDS011;9649;51.042;13.804;2023-10-09T22:18:05;21.98;;;16.23;;
19032;SDS011;9649;51.042;13.804;2023-10-09T22:23:12;33.75;;;16.63;;
19032;SDS011;9649;51.042;13.804;2023-10-09T22:28:19;26.90;;;17.88;;
19032;SDS011;9649;51.042;13.804;2023-10-09T22:33:25;32.30;;;20.27;;
19032;SDS011;9649;51.042;13.804;2023-10-09T22:38:38;28.08;;;19.27;;
19032;SDS011;9649;51.042;13.804;2023-10-09T22:43:43;28.02;;;18.65;;
19032;SDS011;9649;51.042;13.804;2023-10-09T22:48:49;28.98;;;19.05;;
19032;SDS011;9649;51.042;13.804;2023-10-09T22:53:53;31.02;;;18.73;;
19032;SDS011;9649;51.042;13.804;2023-10-09T22:58:58;31.08;;;20.42;;
19032;SDS011;9649;51.042;13.804;2023-10-09T23:04:22;35.00;;;21.77;;
19032;SDS011;9649;51.042;13.804;2023-10-09T23:09:38;33.13;;;22.02;;
19032;SDS011;9649;51.042;13.804;2023-10-09T23:14:51;38.70;;;22.65;;
19032;SDS011;9649;51.042;13.804;2023-10-09T23:19:57;39.38;;;24.13;;
19032;SDS011;9649;51.042;13.804;2023-10-09T23:25:00;35.63;;;22.50;;
19032;SDS011;9649;51.042;13.804;2023-10-09T23:30:11;38.63;;;22.77;;
19032;SDS011;9649;51.042;13.804;2023-10-09T23:35:19;39.95;;;24.33;;
19032;SDS011;9649;51.042;13.804;2023-10-09T23:40:23;38.85;;;22.98;;
19032;SDS011;9649;51.042;13.804;2023-10-09T23:45:39;46.42;;;24.55;;
19032;SDS011;9649;51.042;13.804;2023-10-09T23:50:44;38.28;;;23.52;;
19032;SDS011;9649;51.042;13.804;2023-10-09T23:55:49;36.20;;;22.15;;
